Time;durP1;ratioP1;P1;durP2;ratioP2;P2;SDS_P1;SDS_P2;PMS_P1;PMS_P2;Temp;Humidity;BMP_temperature;BMP_pressure;BME280_temperature;BME280_humidity;BME280_pressure;Samples;Min_cycle;Max_cycle;Signal;HPM_P1;HPM_P2
2022/12/07 00:01:32;;;;;;;21.48;12.10;;;3.00;99.90;;;;;;5081703;28;20047;-68
2022/12/07 00:04:06;;;;;;;21.13;11.90;;;3.00;99.90;;;;;;5099412;28;20036;-68
2022/12/07 00:06:39;;;;;;;21.17;10.95;;;3.10;99.90;;;;;;5100332;28;20061;-68
2022/12/07 00:09:07;;;;;;;20.00;11.48;;;3.10;99.90;;;;;;5099561;28;20016;-68
2022/12/07 00:11:34;;;;;;;17.48;10.98;;;3.10;99.90;;;;;;5082770;28;20077;-68
2022/12/07 00:14:05;;;;;;;19.33;11.07;;;3.10;99.90;;;;;;5099889;28;20032;-68
2022/12/07 00:16:33;;;;;;;19.63;10.60;;;3.10;99.90;;;;;;5099685;28;20085;-68
2022/12/07 00:19:01;;;;;;;18.05;10.77;;;3.20;99.90;;;;;;5099364;28;20028;-68
2022/12/07 00:21:34;;;;;;;17.83;10.50;;;3.10;99.90;;;;;;5081651;28;20103;-68
2022/12/07 00:24:03;;;;;;;17.80;10.25;;;3.20;99.90;;;;;;5099160;28;20036;-68
2022/12/07 00:26:34;;;;;;;18.15;9.52;;;3.20;99.90;;;;;;5099159;28;20098;-68
2022/12/07 00:29:30;;;;;;;17.00;10.10;;;3.20;99.90;;;;;;5099218;28;20376;-68
2022/12/07 00:31:58;;;;;;;18.48;10.75;;;3.20;99.90;;;;;;5096467;28;20441;-68
2022/12/07 00:34:25;;;;;;;20.23;10.73;;;3.20;99.90;;;;;;5081108;28;20020;-68
2022/12/07 00:36:52;;;;;;;18.25;10.73;;;3.20;99.90;;;;;;5099570;28;20085;-68
2022/12/07 00:39:20;;;;;;;16.73;10.77;;;3.20;99.90;;;;;;5099537;28;20024;-68
2022/12/07 00:41:48;;;;;;;20.58;11.45;;;3.20;99.90;;;;;;5099104;28;20016;-68
2022/12/07 00:44:15;;;;;;;18.92;11.38;;;3.20;99.90;;;;;;5080845;28;20080;-68
2022/12/07 00:46:43;;;;;;;17.98;10.65;;;3.20;99.90;;;;;;5098882;28;20110;-68
2022/12/07 00:49:10;;;;;;;18.35;11.43;;;3.20;99.90;;;;;;5098698;28;20097;-68
2022/12/07 00:51:37;;;;;;;21.20;12.05;;;3.20;99.90;;;;;;5080910;28;20320;-68
2022/12/07 00:54:05;;;;;;;20.63;12.40;;;3.20;99.90;;;;;;5099254;28;20031;-68
2022/12/07 00:56:32;;;;;;;22.52;12.85;;;3.20;99.90;;;;;;5098969;28;20027;-68
2022/12/07 00:59:04;;;;;;;27.88;13.68;;;3.20;99.90;;;;;;5098605;28;20487;-68
2022/12/07 01:01:36;;;;;;;23.38;13.27;;;3.20;99.90;;;;;;5099092;28;20031;-68
2022/12/07 01:04:05;;;;;;;24.42;14.07;;;3.20;99.90;;;;;;5098195;28;20048;-68
2022/12/07 01:06:32;;;;;;;26.35;13.88;;;3.20;99.90;;;;;;5098305;28;20099;-68
2022/12/07 01:09:00;;;;;;;29.98;14.38;;;3.20;99.90;;;;;;5098948;28;20024;-68
2022/12/07 01:11:30;;;;;;;30.92;15.90;;;3.20;99.90;;;;;;5098344;28;20023;-68
2022/12/07 01:13:58;;;;;;;27.77;14.55;;;3.20;99.90;;;;;;5098481;28;20424;-68
2022/12/07 01:16:28;;;;;;;26.17;13.82;;;3.20;99.90;;;;;;5098188;28;20077;-68
2022/12/07 01:18:57;;;;;;;33.95;16.33;;;3.30;99.90;;;;;;5098697;28;20077;-68
2022/12/07 01:21:29;;;;;;;31.42;15.52;;;3.30;99.90;;;;;;5098036;28;20020;-68
2022/12/07 01:23:59;;;;;;;35.30;15.88;;;3.30;99.90;;;;;;5098025;28;20031;-68
2022/12/07 01:26:27;;;;;;;30.98;13.93;;;3.30;99.90;;;;;;5098057;28;20020;-68
2022/12/07 01:28:55;;;;;;;39.55;15.25;;;3.30;99.90;;;;;;5098045;28;20035;-68
2022/12/07 01:31:24;;;;;;;33.33;16.33;;;3.40;99.90;;;;;;5080495;28;20024;-68
2022/12/07 01:33:56;;;;;;;36.42;16.85;;;3.40;99.90;;;;;;5098018;28;20475;-68
2022/12/07 01:36:32;;;;;;;43.85;18.80;;;3.40;99.90;;;;;;5097746;28;20050;-68
2022/12/07 01:39:04;;;;;;;35.53;17.50;;;3.40;99.90;;;;;;5098360;28;20028;-68
2022/12/07 01:41:34;;;;;;;41.03;18.63;;;3.40;99.90;;;;;;5097778;28;20039;-68
2022/12/07 01:44:15;;;;;;;46.47;19.25;;;3.40;99.90;;;;;;5063126;28;20039;-68
2022/12/07 01:46:45;;;;;;;39.67;18.27;;;3.40;99.90;;;;;;5079698;28;20027;-68
2022/12/07 01:49:34;;;;;;;41.25;18.35;;;3.40;99.90;;;;;;5097633;28;20317;-68
2022/12/07 01:52:17;;;;;;;44.58;18.90;;;3.40;99.90;;;;;;5097711;28;20020;-68
2022/12/07 01:54:46;;;;;;;36.38;17.63;;;3.50;99.90;;;;;;5097520;28;20016;-68
2022/12/07 01:57:15;;;;;;;38.97;18.05;;;3.50;99.90;;;;;;5098046;28;20016;-68
2022/12/07 01:59:45;;;;;;;39.63;18.45;;;3.50;99.90;;;;;;5079449;28;20049;-68
2022/12/07 02:02:34;;;;;;;37.97;16.58;;;3.50;99.90;;;;;;5097982;28;20016;-68
2022/12/07 02:05:04;;;;;;;42.38;17.98;;;3.50;99.90;;;;;;5076932;28;20127;-68
2022/12/07 02:07:35;;;;;;;43.65;18.05;;;3.50;99.90;;;;;;5076976;28;20021;-68
2022/12/07 02:10:25;;;;;;;35.38;16.50;;;3.50;99.90;;;;;;5076937;28;20048;-68
2022/12/07 02:13:16;;;;;;;32.22;13.95;;;3.60;99.90;;;;;;5077328;28;20020;-68
2022/12/07 02:16:06;;;;;;;42.65;18.90;;;3.60;99.90;;;;;;5076827;28;20055;-68
2022/12/07 02:18:53;;;;;;;45.42;18.13;;;3.60;99.90;;;;;;5076845;28;20035;-68
2022/12/07 02:21:39;;;;;;;35.72;16.73;;;3.70;99.90;;;;;;5076987;28;20024;-68
2022/12/07 02:24:37;;;;;;;41.20;18.60;;;3.70;99.90;;;;;;5077248;28;20059;-68
2022/12/07 02:27:28;;;;;;;36.65;16.35;;;3.70;99.90;;;;;;5077001;28;20013;-68
2022/12/07 02:30:03;;;;;;;43.60;18.20;;;3.70;99.90;;;;;;5077200;28;20025;-68
2022/12/07 02:32:33;;;;;;;35.45;15.63;;;3.70;99.90;;;;;;5077219;28;20058;-68
2022/12/07 02:35:10;;;;;;;39.53;16.90;;;3.70;99.90;;;;;;5077115;28;20028;-68
2022/12/07 02:38:04;;;;;;;44.67;18.73;;;3.80;99.90;;;;;;5076738;28;20016;-68
2022/12/07 02:41:13;;;;;;;42.25;16.23;;;3.80;99.90;;;;;;5076570;28;20336;-68
2022/12/07 02:43:54;;;;;;;41.92;16.83;;;3.80;99.90;;;;;;5077009;28;20108;-68
2022/12/07 02:46:27;;;;;;;40.72;17.23;;;3.80;99.90;;;;;;5076503;28;20024;-68
2022/12/07 02:48:55;;;;;;;38.45;16.52;;;3.80;99.90;;;;;;5076753;28;20044;-68
2022/12/07 02:51:23;;;;;;;35.03;16.83;;;3.70;99.90;;;;;;5076609;28;20391;-68
2022/12/07 02:53:50;;;;;;;34.92;15.43;;;3.70;99.90;;;;;;5076629;28;20162;-68
2022/12/07 02:56:49;;;;;;;34.47;13.48;;;3.60;99.90;;;;;;5076944;28;20028;-68
2022/12/07 02:59:49;;;;;;;31.67;14.52;;;3.60;99.90;;;;;;5076391;28;20024;-68
2022/12/07 03:02:39;;;;;;;30.48;13.90;;;3.50;99.90;;;;;;5076478;28;20352;-68
2022/12/07 03:05:21;;;;;;;38.05;14.13;;;3.50;99.90;;;;;;5076764;28;20310;-68
2022/12/07 03:08:04;;;;;;;31.02;13.25;;;3.40;99.90;;;;;;5076844;28;20017;-68
2022/12/07 03:10:54;;;;;;;37.25;15.18;;;3.40;99.90;;;;;;5076772;28;20028;-68
2022/12/07 03:13:43;;;;;;;31.65;14.07;;;3.40;99.90;;;;;;5076956;28;20029;-68
2022/12/07 03:16:41;;;;;;;28.60;12.10;;;3.40;99.90;;;;;;5076148;28;20020;-68
2022/12/07 03:19:18;;;;;;;25.80;13.48;;;3.40;99.90;;;;;;5076042;28;20045;-68
2022/12/07 03:22:10;;;;;;;26.23;11.20;;;3.40;99.90;;;;;;5062430;28;20043;-68
2022/12/07 03:24:52;;;;;;;24.27;10.65;;;3.40;99.90;;;;;;5080089;28;20055;-68
2022/12/07 03:27:27;;;;;;;33.00;9.90;;;3.40;99.90;;;;;;5062279;28;20103;-68
2022/12/07 03:30:23;;;;;;;26.03;12.80;;;3.50;99.90;;;;;;5080574;28;20020;-68
2022/12/07 03:33:01;;;;;;;31.27;11.95;;;3.50;99.90;;;;;;5080075;28;20021;-68
2022/12/07 03:35:35;;;;;;;26.85;10.68;;;3.50;99.90;;;;;;5079847;28;20027;-68
2022/12/07 03:38:21;;;;;;;29.50;12.13;;;3.50;99.90;;;;;;5079879;28;20034;-68
2022/12/07 03:40:58;;;;;;;28.13;11.87;;;3.50;99.90;;;;;;5080411;28;20421;-68
2022/12/07 03:43:27;;;;;;;30.25;11.80;;;3.50;99.90;;;;;;5079802;28;20290;-68
2022/12/07 03:46:20;;;;;;;29.25;12.48;;;3.50;99.90;;;;;;5080275;28;20041;-68
2022/12/07 03:49:12;;;;;;;23.77;11.52;;;3.50;99.90;;;;;;5079665;28;20019;-68
2022/12/07 03:51:52;;;;;;;25.77;10.70;;;3.60;99.90;;;;;;5079682;28;20021;-68
2022/12/07 03:54:29;;;;;;;21.70;10.35;;;3.60;99.90;;;;;;5079534;28;20028;-68
2022/12/07 03:56:57;;;;;;;19.50;8.75;;;3.60;99.90;;;;;;5080046;28;20052;-68
2022/12/07 03:59:26;;;;;;;24.20;9.73;;;3.70;99.90;;;;;;5079451;28;20114;-68
2022/12/07 04:01:57;;;;;;;22.60;9.75;;;3.70;99.90;;;;;;5080271;28;20028;-68
2022/12/07 04:04:25;;;;;;;19.08;10.18;;;3.70;99.90;;;;;;5073602;28;20509;-68
2022/12/07 04:06:52;;;;;;;22.92;11.68;;;3.70;99.90;;;;;;5079488;28;20025;-68
2022/12/07 04:09:20;;;;;;;13.20;7.03;;;3.60;99.90;;;;;;5079899;28;20017;-68
2022/12/07 04:11:48;;;;;;;20.10;9.32;;;3.60;99.90;;;;;;5079318;28;20324;-68
2022/12/07 04:14:19;;;;;;;25.55;10.55;;;3.60;99.90;;;;;;5080655;28;20025;-68
2022/12/07 04:16:48;;;;;;;25.05;10.15;;;3.60;99.90;;;;;;5079340;28;20017;-68
2022/12/07 04:19:16;;;;;;;23.08;9.93;;;3.60;99.90;;;;;;5079691;28;20048;-68
2022/12/07 04:21:44;;;;;;;9.43;5.25;;;3.50;99.90;;;;;;5079212;28;20021;-68
2022/12/07 04:24:13;;;;;;;18.48;7.68;;;3.50;99.90;;;;;;5079367;28;20032;-68
2022/12/07 04:26:42;;;;;;;15.82;7.22;;;3.50;99.90;;;;;;5079735;28;20021;-68
2022/12/07 04:29:09;;;;;;;19.45;7.97;;;3.50;99.90;;;;;;5078950;28;20025;-68
2022/12/07 04:31:37;;;;;;;17.85;7.90;;;3.50;99.90;;;;;;5078341;28;20096;-68
2022/12/07 04:34:05;;;;;;;15.90;7.97;;;3.50;99.90;;;;;;5079372;28;20025;-68
2022/12/07 04:36:33;;;;;;;17.13;8.18;;;3.50;99.90;;;;;;5078982;28;20330;-68
2022/12/07 04:39:01;;;;;;;19.45;8.55;;;3.50;99.90;;;;;;5079621;28;20294;-68
2022/12/07 04:41:28;;;;;;;19.60;9.35;;;3.50;99.90;;;;;;5079293;28;20099;-68
2022/12/07 04:43:57;;;;;;;14.15;7.60;;;3.60;99.90;;;;;;5079310;28;20178;-68
2022/12/07 04:46:26;;;;;;;22.08;9.95;;;3.60;99.90;;;;;;5079176;28;20027;-68
2022/12/07 04:48:54;;;;;;;18.48;8.02;;;3.60;99.90;;;;;;5078706;28;20020;-68
2022/12/07 04:51:27;;;;;;;15.15;7.80;;;3.60;99.90;;;;;;5077415;28;20031;-68
2022/12/07 04:53:55;;;;;;;17.27;8.10;;;3.60;99.90;;;;;;5079063;28;20420;-68
2022/12/07 04:56:23;;;;;;;19.80;8.63;;;3.60;99.90;;;;;;5078735;28;20028;-68
2022/12/07 04:58:52;;;;;;;21.35;10.68;;;3.70;99.90;;;;;;5078450;28;20032;-68
2022/12/07 05:01:20;;;;;;;21.75;9.50;;;3.70;99.90;;;;;;5078885;28;20017;-68
2022/12/07 05:03:48;;;;;;;18.77;8.90;;;3.70;99.90;;;;;;5077133;28;20075;-68
2022/12/07 05:06:16;;;;;;;21.65;8.00;;;3.70;99.90;;;;;;5078429;28;20051;-68
2022/12/07 05:08:44;;;;;;;15.93;8.30;;;3.70;99.90;;;;;;5078146;28;20028;-68
2022/12/07 05:11:54;;;;;;;15.23;7.18;;;3.70;99.90;;;;;;5078679;28;20027;-68
2022/12/07 05:14:05;;;;;;;23.05;9.02;;;3.70;99.90;;;;;;5072323;28;20163;-68
2022/12/07 05:16:32;;;;;;;16.40;8.10;;;3.70;99.90;;;;;;5078575;28;20035;-68
2022/12/07 05:19:00;;;;;;;13.45;7.15;;;3.70;99.90;;;;;;5078044;28;20344;-68
2022/12/07 05:21:27;;;;;;;10.07;5.47;;;3.70;99.90;;;;;;5077898;28;20045;-69
2022/12/07 05:23:54;;;;;;;18.98;8.00;;;3.70;99.90;;;;;;5076752;28;20028;-68
2022/12/07 05:26:21;;;;;;;14.85;7.93;;;3.70;99.90;;;;;;5078397;28;20462;-68
2022/12/07 05:28:56;;;;;;;19.60;6.88;;;3.60;99.90;;;;;;5078266;28;20028;-68
2022/12/07 05:31:25;;;;;;;15.98;7.57;;;3.60;99.90;;;;;;5077393;28;20298;-68
2022/12/07 05:33:53;;;;;;;18.48;7.55;;;3.60;99.90;;;;;;5076647;28;20028;-69
2022/12/07 05:36:20;;;;;;;19.20;7.70;;;3.60;99.90;;;;;;5077845;28;20028;-69
2022/12/07 05:38:49;;;;;;;17.95;7.60;;;3.60;99.90;;;;;;5077772;28;20024;-68
2022/12/07 05:44:05;;;;;;;14.02;6.22;;;3.50;99.90;;;;;;5077361;28;20368;-68
2022/12/07 05:46:35;;;;;;;16.00;6.90;;;3.50;99.90;;;;;;5078431;28;20016;-68
2022/12/07 05:49:03;;;;;;;15.32;6.82;;;3.50;99.90;;;;;;5076284;28;20028;-68
2022/12/07 05:51:31;;;;;;;19.65;7.72;;;3.50;99.90;;;;;;5077830;28;20496;-68
2022/12/07 05:53:58;;;;;;;15.98;6.38;;;3.50;99.90;;;;;;5077288;28;20031;-68
2022/12/07 05:56:26;;;;;;;18.35;7.97;;;3.50;99.90;;;;;;5077210;28;20028;-68
2022/12/07 06:01:40;;;;;;;12.90;5.27;;;3.50;99.90;;;;;;5077447;28;20031;-68
2022/12/07 06:04:08;;;;;;;14.43;6.18;;;3.50;99.90;;;;;;5075670;28;20033;-68
2022/12/07 06:06:35;;;;;;;11.35;4.95;;;3.50;99.90;;;;;;5077278;28;20024;-69
2022/12/07 06:09:03;;;;;;;11.50;5.95;;;3.50;99.90;;;;;;5077507;28;20020;-68
2022/12/07 06:14:17;;;;;;;10.60;6.38;;;3.50;99.90;;;;;;5076957;28;20379;-69
2022/12/07 06:16:45;;;;;;;17.70;6.47;;;3.50;99.90;;;;;;5075995;28;20077;-68
2022/12/07 06:19:12;;;;;;;12.73;7.28;;;3.50;99.90;;;;;;5077389;28;20048;-69
2022/12/07 06:21:40;;;;;;;14.63;6.63;;;3.50;99.90;;;;;;5076929;28;20034;-68
2022/12/07 06:24:12;;;;;;;14.35;6.72;;;3.50;99.90;;;;;;5076721;28;20416;-69
2022/12/07 06:26:40;;;;;;;12.13;5.15;;;3.40;99.90;;;;;;5077522;28;20459;-68
2022/12/07 06:29:08;;;;;;;13.07;6.57;;;3.50;99.90;;;;;;5076754;28;20352;-69
2022/12/07 06:31:36;;;;;;;11.32;6.15;;;3.40;99.90;;;;;;5076781;28;20055;-69
2022/12/07 06:34:07;;;;;;;14.40;6.38;;;3.40;99.90;;;;;;5076708;28;20462;-68
2022/12/07 06:36:38;;;;;;;10.15;5.82;;;3.40;99.90;;;;;;5076752;28;20031;-68
2022/12/07 06:39:08;;;;;;;10.27;6.28;;;3.40;99.90;;;;;;5075567;28;20112;-68
2022/12/07 06:41:36;;;;;;;14.40;5.70;;;3.30;99.90;;;;;;5077153;28;20029;-68
2022/12/07 06:44:07;;;;;;;23.92;7.20;;;3.30;99.90;;;;;;5076485;28;20024;-68
2022/12/07 06:46:35;;;;;;;13.15;6.22;;;3.30;99.90;;;;;;5077020;28;20021;-68
2022/12/07 06:49:04;;;;;;;18.33;6.60;;;3.30;99.90;;;;;;5075430;28;20431;-68
2022/12/07 06:51:31;;;;;;;10.07;4.85;;;3.30;99.90;;;;;;5076639;28;20320;-68
2022/12/07 06:53:58;;;;;;;17.33;7.22;;;3.30;99.90;;;;;;5076200;28;20020;-68
2022/12/07 06:56:26;;;;;;;12.45;5.97;;;3.30;99.90;;;;;;5075362;28;20059;-68
2022/12/07 06:58:53;;;;;;;10.65;5.82;;;3.30;99.90;;;;;;5076616;28;20056;-68
2022/12/07 07:01:21;;;;;;;15.00;6.30;;;3.30;99.90;;;;;;5076959;28;20024;-68
2022/12/07 07:03:48;;;;;;;9.30;5.70;;;3.30;99.90;;;;;;5084383;28;20036;-68
2022/12/07 07:06:16;;;;;;;13.60;6.75;;;3.30;99.90;;;;;;5078630;28;20028;-69
2022/12/07 07:08:43;;;;;;;11.52;4.47;;;3.30;99.90;;;;;;5097242;28;20016;-69
2022/12/07 07:11:12;;;;;;;12.73;6.35;;;3.30;99.90;;;;;;5078482;28;20321;-69
2022/12/07 07:13:39;;;;;;;13.80;6.60;;;3.30;99.90;;;;;;5096475;28;20071;-69
2022/12/07 07:16:08;;;;;;;12.73;5.60;;;3.20;99.90;;;;;;5096472;28;20402;-69
2022/12/07 07:18:35;;;;;;;9.48;5.65;;;3.20;99.90;;;;;;5097158;28;20305;-69
2022/12/07 07:21:04;;;;;;;16.13;6.43;;;3.20;99.90;;;;;;5096278;28;20020;-69
2022/12/07 07:23:31;;;;;;;12.32;5.35;;;3.30;99.90;;;;;;5096652;28;20365;-69
2022/12/07 07:25:59;;;;;;;10.48;5.47;;;3.30;99.90;;;;;;5096916;28;20020;-69
2022/12/07 07:28:26;;;;;;;18.88;5.97;;;3.30;99.90;;;;;;5096527;28;20095;-69
2022/12/07 07:30:53;;;;;;;13.35;5.47;;;3.30;99.90;;;;;;5096328;28;20066;-70
2022/12/07 07:33:21;;;;;;;17.60;6.97;;;3.30;99.90;;;;;;5096893;28;20095;-70
2022/12/07 07:35:49;;;;;;;17.48;8.45;;;3.30;99.90;;;;;;5096206;28;20024;-70
2022/12/07 07:38:16;;;;;;;14.93;6.72;;;3.30;99.90;;;;;;5096950;28;20023;-69
2022/12/07 07:40:43;;;;;;;11.48;6.57;;;3.30;99.90;;;;;;5096788;28;20034;-70
2022/12/07 07:43:11;;;;;;;17.52;7.45;;;3.30;99.90;;;;;;5096203;28;20074;-70
2022/12/07 07:45:40;;;;;;;21.52;6.80;;;3.30;99.90;;;;;;5096216;28;20016;-69
2022/12/07 07:48:07;;;;;;;12.50;6.25;;;3.30;99.90;;;;;;5096373;28;20025;-72
2022/12/07 07:50:35;;;;;;;11.50;6.15;;;3.30;99.90;;;;;;5096040;28;20103;-73
2022/12/07 07:53:02;;;;;;;11.63;5.25;;;3.20;99.90;;;;;;5096181;28;20088;-76
2022/12/07 07:55:30;;;;;;;15.02;6.88;;;3.20;99.90;;;;;;5096159;28;20047;-73
2022/12/07 07:57:58;;;;;;;13.85;6.55;;;3.20;99.90;;;;;;5096854;28;20064;-71
2022/12/07 08:00:26;;;;;;;15.77;7.20;;;3.30;99.90;;;;;;5096348;28;20027;-71
2022/12/07 08:02:54;;;;;;;18.27;6.05;;;3.30;99.90;;;;;;5096324;28;20299;-71
2022/12/07 08:05:22;;;;;;;12.55;4.88;;;3.30;99.90;;;;;;5097274;28;20055;-74
2022/12/07 08:07:49;;;;;;;12.32;5.20;;;3.30;99.90;;;;;;5100090;28;20020;-71
2022/12/07 08:10:16;;;;;;;11.20;5.82;;;3.30;99.90;;;;;;5081594;28;20050;-73
2022/12/07 08:15:31;;;;;;;7.30;3.72;;;3.30;99.90;;;;;;5099564;28;20035;-73
2022/12/07 08:17:58;;;;;;;13.25;6.15;;;3.30;99.90;;;;;;5099914;28;20024;-73
2022/12/07 08:20:26;;;;;;;10.57;5.53;;;3.30;99.90;;;;;;5099802;28;20026;-85
2022/12/07 08:22:53;;;;;;;9.73;5.95;;;3.30;99.90;;;;;;5099605;28;20032;-71
2022/12/07 08:25:25;;;;;;;11.63;5.20;;;3.30;99.90;;;;;;5099324;28;20022;-72
2022/12/07 08:27:53;;;;;;;10.25;5.60;;;3.30;99.90;;;;;;5099430;28;20028;-72
2022/12/07 08:30:21;;;;;;;22.52;7.38;;;3.30;99.90;;;;;;5099521;28;20020;-72
2022/12/07 08:32:49;;;;;;;11.02;5.78;;;3.30;99.90;;;;;;5081262;28;20032;-72
2022/12/07 08:35:17;;;;;;;12.73;5.75;;;3.20;99.90;;;;;;5099697;28;20023;-72
2022/12/07 08:37:45;;;;;;;12.35;4.95;;;3.10;99.90;;;;;;5099278;28;20020;-72
2022/12/07 08:40:18;;;;;;;13.40;4.80;;;3.10;99.90;;;;;;5099312;28;20031;-72
2022/12/07 08:42:50;;;;;;;9.93;4.72;;;3.10;99.90;;;;;;5098982;28;20443;-70
2022/12/07 08:45:18;;;;;;;9.82;4.60;;;3.10;99.90;;;;;;5098954;28;20024;-72
2022/12/07 08:48:05;;;;;;;16.60;4.72;;;3.10;99.90;;;;;;5099200;28;20316;-70
2022/12/07 08:50:36;;;;;;;9.68;4.72;;;3.10;99.90;;;;;;5099511;28;20042;-70
2022/12/07 08:53:04;;;;;;;12.13;5.57;;;3.10;99.90;;;;;;5099318;28;20072;-70
2022/12/07 08:55:34;;;;;;;10.23;4.20;;;3.10;99.90;;;;;;5098592;28;20078;-70
2022/12/07 08:58:05;;;;;;;12.15;4.88;;;3.10;99.90;;;;;;5099186;28;20024;-70
2022/12/07 09:00:32;;;;;;;11.48;4.90;;;3.10;99.90;;;;;;5100312;28;20038;-71
2022/12/07 09:03:00;;;;;;;12.15;5.10;;;3.20;99.90;;;;;;5098530;28;20032;-70
2022/12/07 09:05:28;;;;;;;10.65;5.70;;;3.20;99.90;;;;;;5099708;28;20070;-70
2022/12/07 09:08:01;;;;;;;7.75;3.53;;;3.20;99.90;;;;;;5099433;28;20317;-70
2022/12/07 09:10:29;;;;;;;10.93;5.10;;;3.20;99.90;;;;;;5099251;28;20016;-70
2022/12/07 09:13:00;;;;;;;8.90;5.00;;;3.20;99.90;;;;;;5098684;28;20052;-70
2022/12/07 09:15:32;;;;;;;10.63;5.05;;;3.20;99.90;;;;;;5099218;28;20024;-70
2022/12/07 09:17:59;;;;;;;10.45;5.32;;;3.20;99.90;;;;;;5099462;28;20347;-69
2022/12/07 09:20:26;;;;;;;11.95;4.93;;;3.20;99.90;;;;;;5098173;28;20020;-70
2022/12/07 09:22:54;;;;;;;12.23;5.15;;;3.20;99.90;;;;;;5098682;28;20055;-74
2022/12/07 09:25:21;;;;;;;13.38;5.10;;;3.30;99.90;;;;;;5098434;28;20026;-70
2022/12/07 09:27:56;;;;;;;9.23;4.28;;;3.40;99.90;;;;;;5098404;28;20069;-68
2022/12/07 09:30:24;;;;;;;11.50;5.45;;;3.40;99.90;;;;;;5098021;28;20423;-69
2022/12/07 09:32:56;;;;;;;15.82;4.13;;;3.50;99.90;;;;;;5079995;28;20428;-69
2022/12/07 09:35:24;;;;;;;9.77;4.45;;;3.50;99.90;;;;;;5098360;28;20065;-68
2022/12/07 09:37:52;;;;;;;10.50;3.85;;;3.60;99.90;;;;;;5098095;28;20032;-69
2022/12/07 09:40:22;;;;;;;10.25;4.32;;;3.60;99.90;;;;;;5098440;28;20055;-69
2022/12/07 09:42:53;;;;;;;6.90;3.33;;;3.60;99.90;;;;;;5097811;28;20024;-70
2022/12/07 09:45:35;;;;;;;8.80;3.75;;;3.60;99.90;;;;;;5097777;28;20020;-69
2022/12/07 09:48:04;;;;;;;21.30;3.80;;;3.60;99.90;;;;;;5097915;28;20324;-69
2022/12/07 09:50:31;;;;;;;8.60;3.60;;;3.60;99.90;;;;;;5098201;28;20024;-70
2022/12/07 09:53:26;;;;;;;8.15;3.85;;;3.60;99.90;;;;;;5097714;28;20020;-70
2022/12/07 09:55:55;;;;;;;6.13;2.80;;;3.60;99.90;;;;;;5098123;28;20024;-71
2022/12/07 09:58:28;;;;;;;8.30;4.57;;;3.60;99.90;;;;;;5097734;28;20028;-70
2022/12/07 10:01:21;;;;;;;11.63;3.60;;;3.50;99.90;;;;;;5098055;28;20020;-74
2022/12/07 10:04:03;;;;;;;12.50;4.63;;;3.50;99.90;;;;;;5096940;28;20051;-73
2022/12/07 10:06:31;;;;;;;9.50;4.55;;;3.50;99.90;;;;;;5097442;28;20320;-73
2022/12/07 10:08:58;;;;;;;13.45;3.45;;;3.50;99.90;;;;;;5079385;28;20385;-69
2022/12/07 10:11:25;;;;;;;10.10;3.50;;;3.50;99.90;;;;;;5097858;28;20027;-69
2022/12/07 10:13:53;;;;;;;8.57;3.63;;;3.50;99.90;;;;;;5079253;28;20368;-69
2022/12/07 10:16:40;;;;;;;13.40;3.05;;;3.60;99.90;;;;;;5097273;28;20020;-68
2022/12/07 10:19:23;;;;;;;6.93;3.10;;;3.70;99.90;;;;;;5097211;28;20027;-68
2022/12/07 10:22:20;;;;;;;6.55;2.55;;;3.90;99.90;;;;;;5097810;28;20087;-69
2022/12/07 10:24:48;;;;;;;10.25;2.88;;;4.00;99.90;;;;;;5076095;28;20048;-68
2022/12/07 10:27:41;;;;;;;5.15;2.25;;;4.10;99.90;;;;;;5097605;28;20028;-68
2022/12/07 10:30:16;;;;;;;10.88;3.05;;;4.10;99.90;;;;;;5092707;28;20032;-68
2022/12/07 10:32:44;;;;;;;8.57;2.40;;;4.20;99.90;;;;;;5079190;28;20039;-68
2022/12/07 10:35:29;;;;;;;8.77;2.75;;;4.20;99.90;;;;;;5097359;28;20100;-68
2022/12/07 10:37:59;;;;;;;5.15;2.28;;;4.30;99.90;;;;;;5097767;28;20016;-68
2022/12/07 10:40:28;;;;;;;7.03;2.55;;;4.30;99.90;;;;;;5078904;28;20093;-69
2022/12/07 10:43:22;;;;;;;4.63;2.20;;;4.30;99.90;;;;;;5097349;28;20023;-71
2022/12/07 10:46:12;;;;;;;6.35;2.05;;;4.30;99.90;;;;;;5092537;28;20332;-68
2022/12/07 10:48:51;;;;;;;4.68;2.20;;;4.30;99.90;;;;;;5078904;28;20020;-70
2022/12/07 10:51:28;;;;;;;10.88;2.53;;;4.40;99.90;;;;;;5096648;28;20016;-70
2022/12/07 10:54:27;;;;;;;8.95;2.03;;;4.40;99.90;;;;;;5097263;28;20099;-70
2022/12/07 10:57:06;;;;;;;5.07;2.33;;;4.30;99.90;;;;;;5096815;28;20024;-70
2022/12/07 10:59:54;;;;;;;6.90;2.20;;;4.30;99.90;;;;;;5096592;28;20420;-70
2022/12/07 11:02:41;;;;;;;6.90;2.17;;;4.30;99.90;;;;;;5097081;28;20036;-70
2022/12/07 11:05:20;;;;;;;9.35;1.73;;;4.40;99.90;;;;;;5096372;28;20040;-71
2022/12/07 11:08:26;;;;;;;9.52;2.42;;;4.40;99.90;;;;;;5079117;28;20078;-70
2022/12/07 11:11:07;;;;;;;5.78;1.95;;;4.40;99.90;;;;;;5083320;28;20042;-70
2022/12/07 11:14:05;;;;;;;8.60;1.70;;;4.40;99.90;;;;;;5097365;28;20024;-70
2022/12/07 11:16:56;;;;;;;8.40;2.17;;;4.40;99.90;;;;;;5097099;28;20032;-71
2022/12/07 11:19:51;;;;;;;6.43;1.70;;;4.40;99.90;;;;;;5096712;28;20024;-72
2022/12/07 11:22:42;;;;;;;7.70;1.70;;;4.40;99.90;;;;;;5096520;28;20024;-69
2022/12/07 11:25:29;;;;;;;5.40;1.95;;;4.40;99.90;;;;;;5096925;28;20027;-70
2022/12/07 11:28:21;;;;;;;7.68;1.52;;;4.30;99.90;;;;;;5078454;28;20310;-70
2022/12/07 11:31:21;;;;;;;13.90;2.17;;;4.30;99.90;;;;;;5078386;28;20028;-70
2022/12/07 11:34:00;;;;;;;10.75;1.88;;;4.40;99.90;;;;;;5096789;28;20431;-69
2022/12/07 11:36:38;;;;;;;5.38;1.30;;;4.50;99.90;;;;;;5096442;28;20020;-70
2022/12/07 11:39:36;;;;;;;4.00;1.50;;;4.50;99.90;;;;;;5096796;28;20036;-68
2022/12/07 11:42:25;;;;;;;5.15;1.27;;;4.60;99.90;;;;;;5100245;28;20062;-68
2022/12/07 11:45:16;;;;;;;8.60;2.58;;;4.70;99.90;;;;;;5100656;28;20420;-69
2022/12/07 11:48:00;;;;;;;6.35;1.63;;;4.70;99.90;;;;;;5100070;28;20025;-70
2022/12/07 11:50:41;;;;;;;9.45;1.88;;;4.80;99.90;;;;;;5100477;28;20054;-70
2022/12/07 11:53:21;;;;;;;5.95;1.50;;;4.90;99.90;;;;;;5082357;28;20081;-71
2022/12/07 11:55:55;;;;;;;10.50;1.90;;;5.00;99.90;;;;;;5099818;28;20028;-71
2022/12/07 11:58:49;;;;;;;3.25;1.38;;;5.00;99.90;;;;;;5099883;28;20024;-68
2022/12/07 12:01:47;;;;;;;4.32;1.73;;;5.00;99.90;;;;;;5100332;28;20024;-68
2022/12/07 12:04:34;;;;;;;7.25;1.55;;;5.00;99.90;;;;;;5099689;28;20075;-70
2022/12/07 12:07:03;;;;;;;8.52;1.73;;;5.00;99.90;;;;;;5081654;28;20181;-70
2022/12/07 12:09:47;;;;;;;6.65;1.83;;;4.90;99.90;;;;;;5099569;28;20320;-68
2022/12/07 12:12:37;;;;;;;11.52;1.80;;;4.90;99.90;;;;;;5100287;28;20012;-69
2022/12/07 12:15:31;;;;;;;7.07;1.70;;;5.00;99.90;;;;;;5099515;28;20020;-69
2022/12/07 12:18:17;;;;;;;5.53;2.22;;;5.00;99.90;;;;;;5099513;28;20016;-68
2022/12/07 12:21:11;;;;;;;11.63;2.08;;;5.00;99.90;;;;;;5099645;28;20020;-68
2022/12/07 12:23:57;;;;;;;6.47;1.77;;;5.00;99.90;;;;;;5086558;28;20059;-69
2022/12/07 12:26:31;;;;;;;7.60;1.30;;;5.00;99.90;;;;;;5099837;28;20404;-68
2022/12/07 12:28:59;;;;;;;9.10;1.63;;;4.90;99.90;;;;;;5099772;28;20043;-71
2022/12/07 12:31:27;;;;;;;5.88;2.28;;;4.90;99.90;;;;;;5099765;28;20046;-68
2022/12/07 12:33:58;;;;;;;14.60;1.80;;;4.80;99.90;;;;;;5099914;28;20027;-68
2022/12/07 12:36:32;;;;;;;9.25;1.58;;;4.80;99.90;;;;;;5081101;28;20424;-67
2022/12/07 12:39:14;;;;;;;6.35;1.67;;;4.80;99.90;;;;;;5099605;28;20428;-67
2022/12/07 12:42:05;;;;;;;6.53;2.30;;;4.80;99.90;;;;;;5099601;28;20020;-67
2022/12/07 12:44:34;;;;;;;9.57;1.73;;;4.70;99.90;;;;;;5098514;28;20032;-67
2022/12/07 12:47:20;;;;;;;5.45;1.13;;;4.70;99.90;;;;;;5099025;28;20028;-67
2022/12/07 12:50:20;;;;;;;5.65;1.42;;;4.80;99.90;;;;;;5099639;28;20020;-67
2022/12/07 12:52:57;;;;;;;10.05;1.08;;;4.80;99.90;;;;;;5078824;28;20384;-67
2022/12/07 12:55:59;;;;;;;4.47;1.40;;;4.90;99.90;;;;;;5080804;28;20032;-68
2022/12/07 12:58:35;;;;;;;4.38;1.30;;;4.90;99.90;;;;;;5099730;28;20024;-67
2022/12/07 13:01:28;;;;;;;3.15;1.08;;;4.90;99.90;;;;;;5098959;28;20056;-67
2022/12/07 13:03:57;;;;;;;7.28;2.00;;;5.00;99.90;;;;;;5098749;28;20317;-67
2022/12/07 13:06:27;;;;;;;7.88;1.98;;;5.00;99.90;;;;;;5080566;28;20024;-67
2022/12/07 13:09:00;;;;;;;7.82;1.40;;;5.10;99.90;;;;;;5099205;28;20024;-67
2022/12/07 13:11:34;;;;;;;11.32;1.90;;;5.10;99.90;;;;;;5099021;28;20020;-68
2022/12/07 13:14:40;;;;;;;5.63;1.42;;;5.20;99.90;;;;;;5098415;28;20367;-67
2022/12/07 13:17:33;;;;;;;5.63;1.02;;;5.20;99.90;;;;;;5098346;28;20027;-67
2022/12/07 13:20:04;;;;;;;3.30;1.10;;;5.20;99.90;;;;;;5097688;28;20024;-67
2022/12/07 13:22:37;;;;;;;7.07;1.33;;;5.10;99.90;;;;;;5080252;28;20032;-67
2022/12/07 13:25:29;;;;;;;5.78;1.70;;;5.10;99.90;;;;;;5099013;28;20019;-67
2022/12/07 13:28:18;;;;;;;5.60;1.50;;;5.00;99.90;;;;;;5098582;28;20404;-67
2022/12/07 13:31:12;;;;;;;3.33;1.20;;;4.90;99.90;;;;;;5098097;28;20024;-67
2022/12/07 13:33:46;;;;;;;7.47;1.70;;;4.90;99.90;;;;;;5051793;28;20086;-68
2022/12/07 13:36:25;;;;;;;5.78;1.95;;;4.90;99.90;;;;;;5079852;28;20114;-67